sensor_id;sensor_type;location;lat;lon;timestamp;temperature;humidity
60313;DHT22;46158;52.850;6.970;2022-11-20T00:00:29;12.30;80.80
60313;DHT22;46158;52.850;6.970;2022-11-20T00:02:55;12.20;80.70
60313;DHT22;46158;52.850;6.970;2022-11-20T00:05:20;12.30;80.70
60313;DHT22;46158;52.850;6.970;2022-11-20T00:07:46;12.30;80.70
60313;DHT22;46158;52.850;6.970;2022-11-20T00:10:12;12.20;80.60
60313;DHT22;46158;52.850;6.970;2022-11-20T00:12:37;12.20;80.60
60313;DHT22;46158;52.850;6.970;2022-11-20T00:15:04;12.20;80.60
60313;DHT22;46158;52.850;6.970;2022-11-20T00:17:30;12.20;80.50
60313;DHT22;46158;52.850;6.970;2022-11-20T00:19:55;12.20;80.50
60313;DHT22;46158;52.850;6.970;2022-11-20T00:22:21;12.20;80.50
60313;DHT22;46158;52.850;6.970;2022-11-20T00:24:47;12.10;80.40
60313;DHT22;46158;52.850;6.970;2022-11-20T00:27:12;12.10;80.40
60313;DHT22;46158;52.850;6.970;2022-11-20T00:29:38;12.10;80.40
60313;DHT22;46158;52.850;6.970;2022-11-20T00:32:04;12.10;80.30
60313;DHT22;46158;52.850;6.970;2022-11-20T00:34:29;12.10;80.30
60313;DHT22;46158;52.850;6.970;2022-11-20T00:36:55;12.10;80.30
60313;DHT22;46158;52.850;6.970;2022-11-20T00:39:21;12.10;80.30
60313;DHT22;46158;52.850;6.970;2022-11-20T00:41:46;12.10;80.20
60313;DHT22;46158;52.850;6.970;2022-11-20T00:44:12;12.00;80.10
60313;DHT22;46158;52.850;6.970;2022-11-20T00:46:38;12.00;80.10
60313;DHT22;46158;52.850;6.970;2022-11-20T00:49:03;12.00;80.20
60313;DHT22;46158;52.850;6.970;2022-11-20T00:51:29;12.00;80.00
60313;DHT22;46158;52.850;6.970;2022-11-20T00:53:56;12.00;80.00
60313;DHT22;46158;52.850;6.970;2022-11-20T00:56:22;12.00;80.00
60313;DHT22;46158;52.850;6.970;2022-11-20T00:59:10;11.90;79.90
60313;DHT22;46158;52.850;6.970;2022-11-20T01:01:36;11.90;79.90
60313;DHT22;46158;52.850;6.970;2022-11-20T01:04:02;11.90;80.00
60313;DHT22;46158;52.850;6.970;2022-11-20T01:06:30;11.90;79.90
60313;DHT22;46158;52.850;6.970;2022-11-20T01:08:59;11.90;79.90
60313;DHT22;46158;52.850;6.970;2022-11-20T01:11:30;11.90;79.80
60313;DHT22;46158;52.850;6.970;2022-11-20T01:13:58;11.90;79.80
60313;DHT22;46158;52.850;6.970;2022-11-20T01:18:53;11.80;79.70
60313;DHT22;46158;52.850;6.970;2022-11-20T01:21:23;11.80;79.70
60313;DHT22;46158;52.850;6.970;2022-11-20T01:23:49;11.80;79.70
60313;DHT22;46158;52.850;6.970;2022-11-20T01:26:20;11.80;79.70
60313;DHT22;46158;52.850;6.970;2022-11-20T01:28:47;11.80;79.60
60313;DHT22;46158;52.850;6.970;2022-11-20T01:31:25;11.80;79.60
60313;DHT22;46158;52.850;6.970;2022-11-20T01:33:53;11.70;79.50
60313;DHT22;46158;52.850;6.970;2022-11-20T01:36:22;11.70;79.50
60313;DHT22;46158;52.850;6.970;2022-11-20T01:38:51;11.70;79.50
60313;DHT22;46158;52.850;6.970;2022-11-20T01:41:18;11.70;79.50
60313;DHT22;46158;52.850;6.970;2022-11-20T01:44:03;11.70;79.50
60313;DHT22;46158;52.850;6.970;2022-11-20T01:46:31;11.70;79.60
60313;DHT22;46158;52.850;6.970;2022-11-20T01:48:58;11.60;79.50
60313;DHT22;46158;52.850;6.970;2022-11-20T01:51:47;11.60;79.40
60313;DHT22;46158;52.850;6.970;2022-11-20T01:54:17;11.70;79.40
60313;DHT22;46158;52.850;6.970;2022-11-20T01:56:45;11.60;79.60
60313;DHT22;46158;52.850;6.970;2022-11-20T01:59:16;11.60;79.60
60313;DHT22;46158;52.850;6.970;2022-11-20T02:01:43;11.60;79.50
60313;DHT22;46158;52.850;6.970;2022-11-20T02:04:10;11.50;79.40
60313;DHT22;46158;52.850;6.970;2022-11-20T02:06:42;11.50;79.30
60313;DHT22;46158;52.850;6.970;2022-11-20T02:09:09;11.50;79.30
60313;DHT22;46158;52.850;6.970;2022-11-20T02:11:35;11.50;79.30
60313;DHT22;46158;52.850;6.970;2022-11-20T02:14:01;11.50;79.30
60313;DHT22;46158;52.850;6.970;2022-11-20T02:16:33;11.50;79.30
60313;DHT22;46158;52.850;6.970;2022-11-20T02:19:00;11.50;79.20
60313;DHT22;46158;52.850;6.970;2022-11-20T02:24:03;11.50;79.20
60313;DHT22;46158;52.850;6.970;2022-11-20T02:26:33;11.50;79.20
60313;DHT22;46158;52.850;6.970;2022-11-20T02:29:02;11.40;79.20
60313;DHT22;46158;52.850;6.970;2022-11-20T02:31:40;11.50;79.20
60313;DHT22;46158;52.850;6.970;2022-11-20T02:34:07;11.40;79.10
60313;DHT22;46158;52.850;6.970;2022-11-20T02:36:33;11.40;79.50
60313;DHT22;46158;52.850;6.970;2022-11-20T02:39:03;11.40;79.10
60313;DHT22;46158;52.850;6.970;2022-11-20T02:41:34;11.40;79.00
60313;DHT22;46158;52.850;6.970;2022-11-20T02:44:00;11.40;79.00
60313;DHT22;46158;52.850;6.970;2022-11-20T02:46:26;11.40;79.10
60313;DHT22;46158;52.850;6.970;2022-11-20T02:48:51;11.40;79.00
60313;DHT22;46158;52.850;6.970;2022-11-20T02:51:17;11.40;79.00
60313;DHT22;46158;52.850;6.970;2022-11-20T02:53:43;11.30;79.00
60313;DHT22;46158;52.850;6.970;2022-11-20T02:56:08;11.30;79.00
60313;DHT22;46158;52.850;6.970;2022-11-20T02:58:34;11.30;78.90
60313;DHT22;46158;52.850;6.970;2022-11-20T03:00:59;11.30;79.00
60313;DHT22;46158;52.850;6.970;2022-11-20T03:03:25;11.30;79.00
60313;DHT22;46158;52.850;6.970;2022-11-20T03:05:51;11.30;78.90
60313;DHT22;46158;52.850;6.970;2022-11-20T03:08:16;11.30;78.90
60313;DHT22;46158;52.850;6.970;2022-11-20T03:10:42;11.30;78.90
60313;DHT22;46158;52.850;6.970;2022-11-20T03:13:08;11.30;78.90
60313;DHT22;46158;52.850;6.970;2022-11-20T03:15:36;11.30;78.90
60313;DHT22;46158;52.850;6.970;2022-11-20T03:18:02;11.30;78.90
60313;DHT22;46158;52.850;6.970;2022-11-20T03:20:28;11.20;78.90
60313;DHT22;46158;52.850;6.970;2022-11-20T03:22:54;11.20;78.90
60313;DHT22;46158;52.850;6.970;2022-11-20T03:25:21;11.20;79.00
60313;DHT22;46158;52.850;6.970;2022-11-20T03:27:46;11.20;79.00
60313;DHT22;46158;52.850;6.970;2022-11-20T03:30:12;11.20;79.00
60313;DHT22;46158;52.850;6.970;2022-11-20T03:32:38;11.20;78.90
60313;DHT22;46158;52.850;6.970;2022-11-20T03:35:04;11.20;78.90
60313;DHT22;46158;52.850;6.970;2022-11-20T03:37:31;11.20;78.90
60313;DHT22;46158;52.850;6.970;2022-11-20T03:39:56;11.10;78.80
60313;DHT22;46158;52.850;6.970;2022-11-20T03:42:22;11.20;78.90
60313;DHT22;46158;52.850;6.970;2022-11-20T03:45:07;11.10;78.80
60313;DHT22;46158;52.850;6.970;2022-11-20T03:47:32;11.10;78.80
60313;DHT22;46158;52.850;6.970;2022-11-20T03:49:58;11.10;78.90
60313;DHT22;46158;52.850;6.970;2022-11-20T03:52:24;11.10;78.90
60313;DHT22;46158;52.850;6.970;2022-11-20T03:54:49;11.10;79.60
60313;DHT22;46158;52.850;6.970;2022-11-20T03:57:15;11.10;78.90
60313;DHT22;46158;52.850;6.970;2022-11-20T03:59:40;11.10;78.90
60313;DHT22;46158;52.850;6.970;2022-11-20T04:02:06;11.10;78.90
60313;DHT22;46158;52.850;6.970;2022-11-20T04:04:32;11.10;79.00
60313;DHT22;46158;52.850;6.970;2022-11-20T04:06:57;11.10;78.90
60313;DHT22;46158;52.850;6.970;2022-11-20T04:09:23;11.00;78.80
60313;DHT22;46158;52.850;6.970;2022-11-20T04:11:49;11.00;78.90
60313;DHT22;46158;52.850;6.970;2022-11-20T04:14:15;11.00;78.80
60313;DHT22;46158;52.850;6.970;2022-11-20T04:16:42;11.00;78.70
60313;DHT22;46158;52.850;6.970;2022-11-20T04:19:13;11.00;78.70
60313;DHT22;46158;52.850;6.970;2022-11-20T04:21:39;11.00;78.70
60313;DHT22;46158;52.850;6.970;2022-11-20T04:24:05;11.00;78.90
60313;DHT22;46158;52.850;6.970;2022-11-20T04:26:32;11.00;78.90
60313;DHT22;46158;52.850;6.970;2022-11-20T04:28:58;11.00;78.90
60313;DHT22;46158;52.850;6.970;2022-11-20T04:31:33;11.00;78.90
60313;DHT22;46158;52.850;6.970;2022-11-20T04:34:03;11.00;78.80
60313;DHT22;46158;52.850;6.970;2022-11-20T04:36:30;10.90;78.80
60313;DHT22;46158;52.850;6.970;2022-11-20T04:39:01;10.90;78.80
60313;DHT22;46158;52.850;6.970;2022-11-20T04:41:32;10.90;79.10
60313;DHT22;46158;52.850;6.970;2022-11-20T04:44:00;10.90;78.70
60313;DHT22;46158;52.850;6.970;2022-11-20T04:46:39;10.90;78.80
60313;DHT22;46158;52.850;6.970;2022-11-20T04:49:05;10.90;78.80
60313;DHT22;46158;52.850;6.970;2022-11-20T04:51:31;10.90;78.80
60313;DHT22;46158;52.850;6.970;2022-11-20T04:53:57;10.90;78.80
60313;DHT22;46158;52.850;6.970;2022-11-20T04:56:23;10.90;78.90
60313;DHT22;46158;52.850;6.970;2022-11-20T04:58:48;10.90;78.90
60313;DHT22;46158;52.850;6.970;2022-11-20T05:01:19;10.90;78.90
60313;DHT22;46158;52.850;6.970;2022-11-20T05:03:46;10.80;78.80
60313;DHT22;46158;52.850;6.970;2022-11-20T05:06:16;10.90;78.90
60313;DHT22;46158;52.850;6.970;2022-11-20T05:08:42;10.90;78.80
60313;DHT22;46158;52.850;6.970;2022-11-20T05:11:14;10.80;78.80
60313;DHT22;46158;52.850;6.970;2022-11-20T05:13:40;10.90;78.80
60313;DHT22;46158;52.850;6.970;2022-11-20T05:16:11;10.80;78.70
60313;DHT22;46158;52.850;6.970;2022-11-20T05:18:38;10.80;78.60
60313;DHT22;46158;52.850;6.970;2022-11-20T05:21:04;10.80;78.70
60313;DHT22;46158;52.850;6.970;2022-11-20T05:23:32;10.80;78.70
60313;DHT22;46158;52.850;6.970;2022-11-20T05:25:58;10.80;78.70
60313;DHT22;46158;52.850;6.970;2022-11-20T05:28:24;10.80;78.90
60313;DHT22;46158;52.850;6.970;2022-11-20T05:30:50;10.80;78.80
60313;DHT22;46158;52.850;6.970;2022-11-20T05:33:16;10.80;78.90
60313;DHT22;46158;52.850;6.970;2022-11-20T05:35:42;10.80;78.80
60313;DHT22;46158;52.850;6.970;2022-11-20T05:38:08;10.80;78.90
60313;DHT22;46158;52.850;6.970;2022-11-20T05:40:33;10.80;79.00
60313;DHT22;46158;52.850;6.970;2022-11-20T05:43:00;10.80;79.10
60313;DHT22;46158;52.850;6.970;2022-11-20T05:45:25;10.80;79.10
60313;DHT22;46158;52.850;6.970;2022-11-20T05:47:51;10.80;79.10
60313;DHT22;46158;52.850;6.970;2022-11-20T05:50:16;10.80;79.20
60313;DHT22;46158;52.850;6.970;2022-11-20T05:52:42;10.80;79.30
60313;DHT22;46158;52.850;6.970;2022-11-20T05:55:08;10.80;79.30
60313;DHT22;46158;52.850;6.970;2022-11-20T05:57:34;10.80;79.30
60313;DHT22;46158;52.850;6.970;2022-11-20T05:59:59;10.80;79.40
60313;DHT22;46158;52.850;6.970;2022-11-20T06:02:25;10.80;79.60
60313;DHT22;46158;52.850;6.970;2022-11-20T06:04:51;10.80;79.60
60313;DHT22;46158;52.850;6.970;2022-11-20T06:07:16;10.80;79.80
60313;DHT22;46158;52.850;6.970;2022-11-20T06:09:42;10.80;79.90
60313;DHT22;46158;52.850;6.970;2022-11-20T06:12:08;10.80;80.10
60313;DHT22;46158;52.850;6.970;2022-11-20T06:14:33;10.80;80.30
60313;DHT22;46158;52.850;6.970;2022-11-20T06:16:59;10.80;80.50
60313;DHT22;46158;52.850;6.970;2022-11-20T06:19:25;10.80;80.70
60313;DHT22;46158;52.850;6.970;2022-11-20T06:21:51;10.90;80.90
60313;DHT22;46158;52.850;6.970;2022-11-20T06:24:16;10.90;81.00
60313;DHT22;46158;52.850;6.970;2022-11-20T06:26:42;10.90;81.20
60313;DHT22;46158;52.850;6.970;2022-11-20T06:29:08;10.90;81.30
60313;DHT22;46158;52.850;6.970;2022-11-20T06:31:34;10.90;81.50
60313;DHT22;46158;52.850;6.970;2022-11-20T06:34:03;10.90;81.70
60313;DHT22;46158;52.850;6.970;2022-11-20T06:36:30;10.90;81.80
60313;DHT22;46158;52.850;6.970;2022-11-20T06:38:55;10.90;81.90
60313;DHT22;46158;52.850;6.970;2022-11-20T06:41:22;11.00;82.10
60313;DHT22;46158;52.850;6.970;2022-11-20T06:43:48;11.00;82.40
60313;DHT22;46158;52.850;6.970;2022-11-20T06:46:15;11.00;82.50
60313;DHT22;46158;52.850;6.970;2022-11-20T06:48:43;11.10;82.70
60313;DHT22;46158;52.850;6.970;2022-11-20T06:51:09;11.10;82.70
60313;DHT22;46158;52.850;6.970;2022-11-20T06:53:35;11.10;82.80
60313;DHT22;46158;52.850;6.970;2022-11-20T06:56:01;11.20;83.00
60313;DHT22;46158;52.850;6.970;2022-11-20T06:58:28;11.20;83.10
60313;DHT22;46158;52.850;6.970;2022-11-20T07:01:15;11.30;83.40
60313;DHT22;46158;52.850;6.970;2022-11-20T07:03:41;11.30;83.40
60313;DHT22;46158;52.850;6.970;2022-11-20T07:06:07;11.30;83.60
60313;DHT22;46158;52.850;6.970;2022-11-20T07:08:33;11.40;83.70
60313;DHT22;46158;52.850;6.970;2022-11-20T07:11:01;11.40;83.80
60313;DHT22;46158;52.850;6.970;2022-11-20T07:13:27;11.40;83.90
60313;DHT22;46158;52.850;6.970;2022-11-20T07:15:53;11.40;83.90
60313;DHT22;46158;52.850;6.970;2022-11-20T07:18:19;11.50;84.00
60313;DHT22;46158;52.850;6.970;2022-11-20T07:20:45;11.50;84.00
60313;DHT22;46158;52.850;6.970;2022-11-20T07:23:10;11.50;84.00
60313;DHT22;46158;52.850;6.970;2022-11-20T07:25:36;11.60;84.00
60313;DHT22;46158;52.850;6.970;2022-11-20T07:28:01;11.60;84.00
60313;DHT22;46158;52.850;6.970;2022-11-20T07:30:28;11.60;84.00
60313;DHT22;46158;52.850;6.970;2022-11-20T07:32:54;11.60;84.00
60313;DHT22;46158;52.850;6.970;2022-11-20T07:35:21;11.60;84.00
60313;DHT22;46158;52.850;6.970;2022-11-20T07:37:47;11.60;83.30
60313;DHT22;46158;52.850;6.970;2022-11-20T07:40:14;11.60;83.20
60313;DHT22;46158;52.850;6.970;2022-11-20T07:42:47;11.60;83.40
60313;DHT22;46158;52.850;6.970;2022-11-20T07:45:13;11.60;83.40
60313;DHT22;46158;52.850;6.970;2022-11-20T07:47:39;11.60;83.50
60313;DHT22;46158;52.850;6.970;2022-11-20T07:50:05;11.70;83.50
60313;DHT22;46158;52.850;6.970;2022-11-20T07:52:30;11.60;83.40
60313;DHT22;46158;52.850;6.970;2022-11-20T07:54:56;11.60;83.30
60313;DHT22;46158;52.850;6.970;2022-11-20T07:57:21;11.70;83.20
60313;DHT22;46158;52.850;6.970;2022-11-20T07:59:47;11.70;83.10
60313;DHT22;46158;52.850;6.970;2022-11-20T08:02:13;11.70;83.10
60313;DHT22;46158;52.850;6.970;2022-11-20T08:04:38;11.70;83.20
60313;DHT22;46158;52.850;6.970;2022-11-20T08:07:04;11.70;83.30
60313;DHT22;46158;52.850;6.970;2022-11-20T08:09:29;11.70;83.30
60313;DHT22;46158;52.850;6.970;2022-11-20T08:11:55;11.70;83.40
60313;DHT22;46158;52.850;6.970;2022-11-20T08:14:39;11.70;83.50
60313;DHT22;46158;52.850;6.970;2022-11-20T08:17:05;11.70;83.50
60313;DHT22;46158;52.850;6.970;2022-11-20T08:19:30;11.70;83.60
60313;DHT22;46158;52.850;6.970;2022-11-20T08:21:56;11.70;83.70
60313;DHT22;46158;52.850;6.970;2022-11-20T08:24:21;11.70;83.70
60313;DHT22;46158;52.850;6.970;2022-11-20T08:26:47;11.80;83.80
60313;DHT22;46158;52.850;6.970;2022-11-20T08:29:13;11.80;83.50
60313;DHT22;46158;52.850;6.970;2022-11-20T08:31:38;11.70;83.00
60313;DHT22;46158;52.850;6.970;2022-11-20T08:34:04;11.70;82.60
60313;DHT22;46158;52.850;6.970;2022-11-20T08:36:33;11.70;82.80
60313;DHT22;46158;52.850;6.970;2022-11-20T08:38:59;11.70;83.10
60313;DHT22;46158;52.850;6.970;2022-11-20T08:41:25;11.70;83.30
60313;DHT22;46158;52.850;6.970;2022-11-20T08:46:20;11.70;83.50
60313;DHT22;46158;52.850;6.970;2022-11-20T08:48:46;11.80;83.60
60313;DHT22;46158;52.850;6.970;2022-11-20T08:51:12;11.80;83.80
60313;DHT22;46158;52.850;6.970;2022-11-20T08:53:38;11.80;83.90
60313;DHT22;46158;52.850;6.970;2022-11-20T08:56:05;11.80;84.10
60313;DHT22;46158;52.850;6.970;2022-11-20T08:58:30;11.90;84.20
60313;DHT22;46158;52.850;6.970;2022-11-20T09:00:56;11.90;84.20
60313;DHT22;46158;52.850;6.970;2022-11-20T09:03:22;11.80;84.20
60313;DHT22;46158;52.850;6.970;2022-11-20T09:05:48;11.90;84.40
60313;DHT22;46158;52.850;6.970;2022-11-20T09:08:14;11.90;84.50
60313;DHT22;46158;52.850;6.970;2022-11-20T09:10:39;11.90;84.60
60313;DHT22;46158;52.850;6.970;2022-11-20T09:13:05;11.90;84.60
60313;DHT22;46158;52.850;6.970;2022-11-20T09:15:32;11.90;84.60
60313;DHT22;46158;52.850;6.970;2022-11-20T09:18:02;11.90;84.50
60313;DHT22;46158;52.850;6.970;2022-11-20T09:20:30;12.00;84.50
60313;DHT22;46158;52.850;6.970;2022-11-20T09:22:57;12.00;84.40
60313;DHT22;46158;52.850;6.970;2022-11-20T09:25:23;11.90;84.20
60313;DHT22;46158;52.850;6.970;2022-11-20T09:27:55;12.00;84.30
60313;DHT22;46158;52.850;6.970;2022-11-20T09:30:20;12.00;84.10
60313;DHT22;46158;52.850;6.970;2022-11-20T09:32:46;12.00;84.10
60313;DHT22;46158;52.850;6.970;2022-11-20T09:35:11;12.00;84.00
60313;DHT22;46158;52.850;6.970;2022-11-20T09:37:37;12.00;83.90
60313;DHT22;46158;52.850;6.970;2022-11-20T09:40:03;12.00;83.80
60313;DHT22;46158;52.850;6.970;2022-11-20T09:42:43;12.00;83.80
60313;DHT22;46158;52.850;6.970;2022-11-20T09:56:12;12.00;84.00
60313;DHT22;46158;52.850;6.970;2022-11-20T09:58:42;12.00;84.20
60313;DHT22;46158;52.850;6.970;2022-11-20T10:06:37;12.00;84.30
60313;DHT22;46158;52.850;6.970;2022-11-20T10:09:16;12.00;84.50
60313;DHT22;46158;52.850;6.970;2022-11-20T10:12:02;12.00;84.60
60313;DHT22;46158;52.850;6.970;2022-11-20T10:14:38;12.00;84.60
60313;DHT22;46158;52.850;6.970;2022-11-20T10:23:01;12.10;84.90
60313;DHT22;46158;52.850;6.970;2022-11-20T10:31:00;12.10;85.00
60313;DHT22;46158;52.850;6.970;2022-11-20T10:33:32;12.10;85.00
60313;DHT22;46158;52.850;6.970;2022-11-20T10:36:24;12.10;85.00
60313;DHT22;46158;52.850;6.970;2022-11-20T10:39:01;12.10;84.90
60313;DHT22;46158;52.850;6.970;2022-11-20T10:41:34;12.10;84.90
60313;DHT22;46158;52.850;6.970;2022-11-20T10:44:05;12.10;84.80
60313;DHT22;46158;52.850;6.970;2022-11-20T10:46:40;12.20;84.70
60313;DHT22;46158;52.850;6.970;2022-11-20T10:49:16;12.10;84.40
60313;DHT22;46158;52.850;6.970;2022-11-20T10:54:36;12.20;84.60
60313;DHT22;46158;52.850;6.970;2022-11-20T10:57:15;12.20;85.20
60313;DHT22;46158;52.850;6.970;2022-11-20T10:59:59;12.20;84.60
60313;DHT22;46158;52.850;6.970;2022-11-20T11:02:44;12.20;84.70
60313;DHT22;46158;52.850;6.970;2022-11-20T11:07:58;12.20;84.40
60313;DHT22;46158;52.850;6.970;2022-11-20T11:10:25;12.30;84.70
60313;DHT22;46158;52.850;6.970;2022-11-20T11:12:52;12.30;84.70
60313;DHT22;46158;52.850;6.970;2022-11-20T11:15:28;12.30;84.70
60313;DHT22;46158;52.850;6.970;2022-11-20T11:17:54;12.30;84.50
60313;DHT22;46158;52.850;6.970;2022-11-20T11:20:22;12.30;84.60
60313;DHT22;46158;52.850;6.970;2022-11-20T11:22:50;12.30;84.60
60313;DHT22;46158;52.850;6.970;2022-11-20T11:25:30;12.30;84.60
60313;DHT22;46158;52.850;6.970;2022-11-20T11:28:00;12.30;84.50
60313;DHT22;46158;52.850;6.970;2022-11-20T11:30:28;12.30;84.60
60313;DHT22;46158;52.850;6.970;2022-11-20T11:33:24;12.30;84.60
60313;DHT22;46158;52.850;6.970;2022-11-20T11:36:01;12.40;84.50
60313;DHT22;46158;52.850;6.970;2022-11-20T11:41:04;12.30;84.60
60313;DHT22;46158;52.850;6.970;2022-11-20T11:43:32;12.40;85.30
60313;DHT22;46158;52.850;6.970;2022-11-20T11:57:01;12.40;84.30
60313;DHT22;46158;52.850;6.970;2022-11-20T11:59:37;12.30;84.40
60313;DHT22;46158;52.850;6.970;2022-11-20T12:02:15;12.30;84.10
60313;DHT22;46158;52.850;6.970;2022-11-20T12:05:05;12.30;84.30
60313;DHT22;46158;52.850;6.970;2022-11-20T12:07:43;12.40;84.20
60313;DHT22;46158;52.850;6.970;2022-11-20T12:13:08;12.40;84.10
60313;DHT22;46158;52.850;6.970;2022-11-20T12:15:43;12.40;84.30
60313;DHT22;46158;52.850;6.970;2022-11-20T12:18:20;12.40;84.30
60313;DHT22;46158;52.850;6.970;2022-11-20T12:39:35;12.40;84.40
60313;DHT22;46158;52.850;6.970;2022-11-20T12:45:45;12.40;84.30
60313;DHT22;46158;52.850;6.970;2022-11-20T12:48:28;12.50;84.50
60313;DHT22;46158;52.850;6.970;2022-11-20T12:51:18;12.50;84.50
60313;DHT22;46158;52.850;6.970;2022-11-20T13:01:45;12.50;84.50
60313;DHT22;46158;52.850;6.970;2022-11-20T13:07:19;12.60;84.30
60313;DHT22;46158;52.850;6.970;2022-11-20T13:09:48;12.50;84.40
60313;DHT22;46158;52.850;6.970;2022-11-20T13:15:48;12.60;84.50
60313;DHT22;46158;52.850;6.970;2022-11-20T13:18:17;12.60;83.90
60313;DHT22;46158;52.850;6.970;2022-11-20T13:20:45;12.60;84.10
60313;DHT22;46158;52.850;6.970;2022-11-20T13:23:23;12.60;84.10
60313;DHT22;46158;52.850;6.970;2022-11-20T13:25:50;12.60;84.00
60313;DHT22;46158;52.850;6.970;2022-11-20T13:30:53;12.60;84.30
60313;DHT22;46158;52.850;6.970;2022-11-20T13:33:28;12.60;84.20
60313;DHT22;46158;52.850;6.970;2022-11-20T13:36:01;12.70;84.40
60313;DHT22;46158;52.850;6.970;2022-11-20T13:38:27;12.70;84.50
60313;DHT22;46158;52.850;6.970;2022-11-20T13:40:59;12.70;84.60
60313;DHT22;46158;52.850;6.970;2022-11-20T13:43:47;12.70;84.60
60313;DHT22;46158;52.850;6.970;2022-11-20T13:46:13;12.70;84.70
60313;DHT22;46158;52.850;6.970;2022-11-20T13:48:45;12.70;84.70
60313;DHT22;46158;52.850;6.970;2022-11-20T13:51:38;12.70;84.80
60313;DHT22;46158;52.850;6.970;2022-11-20T13:57:01;12.70;85.00
60313;DHT22;46158;52.850;6.970;2022-11-20T14:02:02;12.70;83.70
60313;DHT22;46158;52.850;6.970;2022-11-20T14:04:35;12.70;83.60
60313;DHT22;46158;52.850;6.970;2022-11-20T14:07:05;12.70;83.60
60313;DHT22;46158;52.850;6.970;2022-11-20T14:09:32;12.70;83.80
60313;DHT22;46158;52.850;6.970;2022-11-20T14:11:59;12.70;83.80
60313;DHT22;46158;52.850;6.970;2022-11-20T14:14:29;12.70;83.80
60313;DHT22;46158;52.850;6.970;2022-11-20T14:17:06;12.70;83.90
60313;DHT22;46158;52.850;6.970;2022-11-20T14:19:32;12.70;83.80
60313;DHT22;46158;52.850;6.970;2022-11-20T14:24:36;12.70;83.90
60313;DHT22;46158;52.850;6.970;2022-11-20T14:27:02;12.70;83.90
60313;DHT22;46158;52.850;6.970;2022-11-20T14:29:33;12.70;83.90
60313;DHT22;46158;52.850;6.970;2022-11-20T14:32:01;12.70;83.90
60313;DHT22;46158;52.850;6.970;2022-11-20T14:34:30;12.70;84.00
60313;DHT22;46158;52.850;6.970;2022-11-20T14:37:02;12.70;83.90
60313;DHT22;46158;52.850;6.970;2022-11-20T14:39:34;12.70;84.00
60313;DHT22;46158;52.850;6.970;2022-11-20T14:42:00;12.70;83.90
60313;DHT22;46158;52.850;6.970;2022-11-20T14:44:32;12.70;84.00
60313;DHT22;46158;52.850;6.970;2022-11-20T14:47:00;12.70;84.10
60313;DHT22;46158;52.850;6.970;2022-11-20T14:49:29;12.70;84.00
60313;DHT22;46158;52.850;6.970;2022-11-20T14:52:11;12.70;84.00
60313;DHT22;46158;52.850;6.970;2022-11-20T14:54:51;12.70;83.90
60313;DHT22;46158;52.850;6.970;2022-11-20T14:59:45;12.70;83.10
60313;DHT22;46158;52.850;6.970;2022-11-20T15:02:12;12.70;83.30
60313;DHT22;46158;52.850;6.970;2022-11-20T15:04:57;12.70;83.40
60313;DHT22;46158;52.850;6.970;2022-11-20T15:07:36;12.70;83.40
60313;DHT22;46158;52.850;6.970;2022-11-20T15:13:05;12.70;83.60
60313;DHT22;46158;52.850;6.970;2022-11-20T15:18:04;12.70;83.80
60313;DHT22;46158;52.850;6.970;2022-11-20T15:20:31;12.70;83.80
60313;DHT22;46158;52.850;6.970;2022-11-20T15:22:58;12.70;83.90
60313;DHT22;46158;52.850;6.970;2022-11-20T15:25:24;12.70;83.90
60313;DHT22;46158;52.850;6.970;2022-11-20T15:27:56;12.80;84.00
60313;DHT22;46158;52.850;6.970;2022-11-20T15:30:23;12.80;84.00
60313;DHT22;46158;52.850;6.970;2022-11-20T15:32:49;12.80;84.10
60313;DHT22;46158;52.850;6.970;2022-11-20T15:35:15;12.80;84.10
60313;DHT22;46158;52.850;6.970;2022-11-20T15:37:41;12.80;84.10
60313;DHT22;46158;52.850;6.970;2022-11-20T15:40:08;12.80;84.10
60313;DHT22;46158;52.850;6.970;2022-11-20T15:42:34;12.80;84.20
60313;DHT22;46158;52.850;6.970;2022-11-20T15:45:00;12.80;84.20
60313;DHT22;46158;52.850;6.970;2022-11-20T15:47:31;12.90;84.30
60313;DHT22;46158;52.850;6.970;2022-11-20T15:49:58;12.90;84.30
60313;DHT22;46158;52.850;6.970;2022-11-20T15:52:23;12.90;84.40
60313;DHT22;46158;52.850;6.970;2022-11-20T15:54:49;12.90;84.50
60313;DHT22;46158;52.850;6.970;2022-11-20T15:57:14;12.90;84.60
60313;DHT22;46158;52.850;6.970;2022-11-20T15:59:40;12.90;84.60
60313;DHT22;46158;52.850;6.970;2022-11-20T16:02:11;12.90;84.70
60313;DHT22;46158;52.850;6.970;2022-11-20T16:04:37;12.90;84.00
60313;DHT22;46158;52.850;6.970;2022-11-20T16:07:03;12.90;83.40
60313;DHT22;46158;52.850;6.970;2022-11-20T16:09:29;12.80;82.80
60313;DHT22;46158;52.850;6.970;2022-11-20T16:11:54;12.80;82.50
60313;DHT22;46158;52.850;6.970;2022-11-20T16:14:20;12.80;82.30
60313;DHT22;46158;52.850;6.970;2022-11-20T16:17:04;12.70;82.10
60313;DHT22;46158;52.850;6.970;2022-11-20T16:19:30;12.70;82.10
60313;DHT22;46158;52.850;6.970;2022-11-20T16:21:57;12.70;82.00
60313;DHT22;46158;52.850;6.970;2022-11-20T16:24:23;12.70;82.00
60313;DHT22;46158;52.850;6.970;2022-11-20T16:26:48;12.70;82.00
60313;DHT22;46158;52.850;6.970;2022-11-20T16:29:14;12.60;82.00
60313;DHT22;46158;52.850;6.970;2022-11-20T16:31:40;12.60;82.00
60313;DHT22;46158;52.850;6.970;2022-11-20T16:34:07;12.60;82.00
60313;DHT22;46158;52.850;6.970;2022-11-20T16:36:33;12.60;82.00
60313;DHT22;46158;52.850;6.970;2022-11-20T16:39:01;12.60;81.90
60313;DHT22;46158;52.850;6.970;2022-11-20T16:41:29;12.60;81.90
60313;DHT22;46158;52.850;6.970;2022-11-20T16:43:57;12.60;81.90
60313;DHT22;46158;52.850;6.970;2022-11-20T16:46:29;12.50;81.90
60313;DHT22;46158;52.850;6.970;2022-11-20T16:49:00;12.50;81.80
60313;DHT22;46158;52.850;6.970;2022-11-20T16:51:26;12.50;81.80
60313;DHT22;46158;52.850;6.970;2022-11-20T16:53:53;12.40;82.10
60313;DHT22;46158;52.850;6.970;2022-11-20T16:56:23;12.40;82.20
60313;DHT22;46158;52.850;6.970;2022-11-20T16:58:50;12.50;82.40
60313;DHT22;46158;52.850;6.970;2022-11-20T17:01:18;12.50;82.40
60313;DHT22;46158;52.850;6.970;2022-11-20T17:03:46;12.50;82.50
60313;DHT22;46158;52.850;6.970;2022-11-20T17:06:19;12.50;82.50
60313;DHT22;46158;52.850;6.970;2022-11-20T17:08:46;12.50;82.50
60313;DHT22;46158;52.850;6.970;2022-11-20T17:11:15;12.50;82.60
60313;DHT22;46158;52.850;6.970;2022-11-20T17:13:41;12.50;82.70
60313;DHT22;46158;52.850;6.970;2022-11-20T17:16:09;12.50;82.80
60313;DHT22;46158;52.850;6.970;2022-11-20T17:18:35;12.50;82.90
60313;DHT22;46158;52.850;6.970;2022-11-20T17:21:01;12.50;82.90
60313;DHT22;46158;52.850;6.970;2022-11-20T17:23:34;12.50;83.00
60313;DHT22;46158;52.850;6.970;2022-11-20T17:26:04;12.50;83.00
60313;DHT22;46158;52.850;6.970;2022-11-20T17:28:30;12.50;83.10
60313;DHT22;46158;52.850;6.970;2022-11-20T17:31:15;12.50;83.20